createdAt,value
2022-10-23T00:04:44.959Z,96064.44
2022-10-23T00:09:46.607Z,96068.75
2022-10-23T00:14:48.221Z,96067.19
2022-10-23T00:19:50.536Z,96066.81
2022-10-23T00:24:52.510Z,96065.25
2022-10-23T00:29:54.579Z,96083.34
2022-10-23T00:34:56.511Z,96070.00
2022-10-23T00:39:58.376Z,96062.19
2022-10-23T00:45:26.707Z,96056.31
2022-10-23T00:50:29.980Z,96072.06
2022-10-23T00:55:34.019Z,96079.13
2022-10-23T01:00:55.914Z,96074.03
2022-10-23T01:06:10.102Z,96065.00
2022-10-23T01:11:37.123Z,96069.72
2022-10-23T01:17:06.073Z,96057.97
2022-10-23T01:27:39.538Z,96047.41
2022-10-23T01:32:53.334Z,96055.66
2022-10-23T01:38:06.477Z,96043.84
2022-10-23T01:43:17.598Z,96030.13
2022-10-23T01:48:25.153Z,96025.81
2022-10-23T01:53:31.243Z,96027.03
2022-10-23T01:58:36.519Z,96031.34
2022-10-23T02:03:41.404Z,96030.94
2022-10-23T02:08:43.532Z,96025.44
2022-10-23T02:13:56.221Z,96029.78
2022-10-23T02:19:08.684Z,96029.41
2022-10-23T02:24:16.680Z,96019.56
2022-10-23T02:29:57.158Z,96014.88
2022-10-23T02:35:01.475Z,96017.63
2022-10-23T02:40:04.345Z,96006.25
2022-10-23T02:45:33.045Z,96012.94
2022-10-23T02:50:39.597Z,96010.59
2022-10-23T02:55:57.006Z,95998.06
2022-10-23T03:01:11.480Z,95980.00
2022-10-23T03:06:33.292Z,95981.97
2022-10-23T03:11:35.484Z,95982.75
2022-10-23T03:16:38.026Z,95988.22
2022-10-23T03:21:39.695Z,95991.78
2022-10-23T03:26:43.613Z,96001.97
2022-10-23T03:31:45.462Z,96005.16
2022-10-23T03:36:48.035Z,95999.66
2022-10-23T03:41:50.078Z,95999.28
2022-10-23T03:46:52.497Z,95999.28
2022-10-23T03:51:55.752Z,95995.75
2022-10-23T03:56:58.194Z,95983.63
2022-10-23T04:02:01.105Z,95988.72
2022-10-23T04:07:04.018Z,95986.75
2022-10-23T04:12:07.771Z,95978.94
2022-10-23T04:17:09.408Z,95984.44
2022-10-23T04:22:11.094Z,95979.75
2022-10-23T04:27:14.320Z,95985.22
2022-10-23T04:32:16.778Z,95988.41
2022-10-23T04:37:19.790Z,95988.81
2022-10-23T04:42:21.496Z,95979.78
2022-10-23T04:47:23.523Z,95995.91
2022-10-23T04:52:33.082Z,96004.56
2022-10-23T04:57:56.018Z,95994.38
2022-10-23T05:03:00.216Z,95992.81
2022-10-23T05:08:11.564Z,95991.66
2022-10-23T05:13:42.244Z,95970.91
2022-10-23T05:18:47.385Z,95969.00
2022-10-23T05:23:49.686Z,95974.50
2022-10-23T05:28:51.626Z,95972.56
2022-10-23T05:33:56.535Z,95967.91
2022-10-23T05:38:59.200Z,95980.47
2022-10-23T05:44:04.283Z,95983.63
2022-10-23T05:49:35.912Z,95983.28
2022-10-23T05:54:58.708Z,95979.38
2022-10-23T06:00:22.395Z,95983.28
2022-10-23T06:05:37.070Z,95979.00
2022-10-23T06:11:09.165Z,95980.16
2022-10-23T06:16:17.288Z,95976.63
2022-10-23T06:21:20.009Z,95976.25
2022-10-23T06:26:24.254Z,95976.25
2022-10-23T06:31:37.919Z,95984.88
2022-10-23T06:36:59.897Z,95985.63
2022-10-23T06:42:09.367Z,95984.44
2022-10-23T06:47:29.421Z,95969.94
2022-10-23T06:53:00.310Z,95972.28
2022-10-23T06:58:04.597Z,95971.09
2022-10-23T07:03:06.383Z,95982.47
2022-10-23T07:08:09.079Z,95976.16
2022-10-23T07:13:16.030Z,95980.41
2022-10-23T07:18:32.155Z,95983.13
2022-10-23T07:23:54.272Z,95980.75
2022-10-23T07:28:58.259Z,95982.69
2022-10-23T07:34:01.002Z,95988.91
2022-10-23T07:39:04.326Z,95981.84
2022-10-23T07:44:09.563Z,95987.72
2022-10-23T07:49:11.729Z,95978.63
2022-10-23T07:54:14.910Z,95975.06
2022-10-23T07:59:16.665Z,95966.00
2022-10-23T08:04:25.180Z,95972.25
2022-10-23T08:09:34.826Z,95965.53
2022-10-23T08:14:38.596Z,95960.41
2022-10-23T08:19:40.399Z,95949.00
2022-10-23T08:24:42.197Z,95954.84
2022-10-23T08:29:44.251Z,95965.44
2022-10-23T08:34:46.046Z,95963.41
2022-10-23T08:39:50.141Z,95961.44
2022-10-23T08:45:08.281Z,95963.38
2022-10-23T08:50:51.892Z,95970.44
2022-10-23T08:55:59.060Z,95962.53
2022-10-23T09:01:01.022Z,95960.16
2022-10-23T09:06:24.393Z,95953.91
2022-10-23T09:11:41.502Z,95944.88
2022-10-23T09:16:55.182Z,95936.63
2022-10-23T09:21:58.171Z,95936.63
2022-10-23T09:27:00.794Z,95950.31
2022-10-23T09:32:05.310Z,95948.31
2022-10-23T09:37:23.764Z,95938.88
2022-10-23T09:42:26.460Z,95945.59
2022-10-23T09:47:28.818Z,95939.31
2022-10-23T09:52:39.105Z,95941.66
2022-10-23T09:57:43.150Z,95938.16
2022-10-23T10:03:00.496Z,95935.03
2022-10-23T10:08:49.157Z,95931.50
2022-10-23T10:14:03.217Z,95929.91
2022-10-23T10:19:15.887Z,95929.44
2022-10-23T10:24:25.849Z,95916.00
2022-10-23T10:29:55.166Z,95910.03
2022-10-23T10:35:04.821Z,95902.09
2022-10-23T10:40:23.768Z,95900.09
2022-10-23T10:46:03.171Z,95898.03
2022-10-23T10:51:12.334Z,95901.84
2022-10-23T10:56:25.205Z,95871.88
2022-10-23T11:01:57.065Z,95857.25
2022-10-23T11:07:02.311Z,95859.44
2022-10-23T11:12:04.293Z,95865.19
2022-10-23T11:17:14.299Z,95852.88
2022-10-23T11:22:26.204Z,95844.50
2022-10-23T11:27:46.273Z,95839.63
2022-10-23T11:33:25.399Z,95841.44
2022-10-23T11:38:31.869Z,95827.81
2022-10-23T11:43:46.775Z,95827.91
2022-10-23T11:48:49.199Z,95812.56
2022-10-23T11:53:50.790Z,95788.50
2022-10-23T11:58:56.431Z,95783.38
2022-10-23T12:04:17.795Z,95770.56
2022-10-23T12:09:30.551Z,95761.34
2022-10-23T12:14:49.642Z,95758.78
2022-10-23T12:19:52.923Z,95751.78
2022-10-23T12:25:04.096Z,95739.38
2022-10-23T12:30:21.237Z,95752.66
2022-10-23T12:35:48.977Z,95764.94
2022-10-23T12:41:00.464Z,95746.47
2022-10-23T12:46:22.288Z,95745.84
2022-10-23T12:51:27.285Z,95734.97
2022-10-23T12:56:35.559Z,95731.97
2022-10-23T13:01:40.375Z,95700.66
2022-10-23T13:06:44.970Z,95690.00
2022-10-23T13:11:46.765Z,95686.81
2022-10-23T13:16:59.314Z,95686.91
2022-10-23T13:22:18.826Z,95680.84
2022-10-23T13:27:33.425Z,95683.19
2022-10-23T13:32:36.635Z,95690.91
2022-10-23T13:37:38.277Z,95674.34
2022-10-23T13:42:39.929Z,95676.00
2022-10-23T13:47:42.090Z,95679.66
2022-10-23T13:52:44.245Z,95680.06
2022-10-23T13:57:46.077Z,95672.66
2022-10-23T14:02:48.115Z,95675.09
2022-10-23T14:07:49.786Z,95668.03
2022-10-23T14:12:54.834Z,95677.09
2022-10-23T14:17:59.089Z,95675.88
2022-10-23T14:23:03.308Z,95673.88
2022-10-23T14:28:05.162Z,95675.44
2022-10-23T14:33:06.785Z,95672.66
2022-10-23T14:38:08.417Z,95677.75
2022-10-23T14:43:10.205Z,95659.19
2022-10-23T14:48:11.852Z,95649.66
2022-10-23T14:53:14.083Z,95654.44
2022-10-23T14:58:15.923Z,95650.56
2022-10-23T15:03:18.647Z,95637.94
2022-10-23T15:08:22.060Z,95645.47
2022-10-23T15:13:23.754Z,95643.94
2022-10-23T15:18:27.381Z,95635.31
2022-10-23T15:23:29.333Z,95621.16
2022-10-23T15:28:32.185Z,95623.56
2022-10-23T15:33:34.002Z,95637.84
2022-10-23T15:38:35.613Z,95628.88
2022-10-23T15:43:37.333Z,95622.69
2022-10-23T15:48:39.054Z,95620.03
2022-10-23T15:53:40.654Z,95613.53
2022-10-23T15:58:42.422Z,95612.84
2022-10-23T16:03:45.497Z,95623.22
2022-10-23T16:08:47.601Z,95614.72
2022-10-23T16:13:49.935Z,95608.16
2022-10-23T16:18:53.877Z,95598.88
2022-10-23T16:23:57.323Z,95598.63
2022-10-23T16:29:02.089Z,95602.38
2022-10-23T16:34:05.506Z,95613.53
2022-10-23T16:39:09.653Z,95611.66
2022-10-23T16:44:31.190Z,95605.44
2022-10-23T16:49:35.194Z,95621.66
2022-10-23T16:54:37.033Z,95611.06
2022-10-23T16:59:38.672Z,95604.09
2022-10-23T17:04:40.569Z,95610.84
2022-10-23T17:09:44.530Z,95618.78
2022-10-23T17:14:46.374Z,95620.44
2022-10-23T17:19:48.228Z,95624.38
2022-10-23T17:24:52.954Z,95613.03
2022-10-23T17:29:55.851Z,95616.63
2022-10-23T17:34:57.529Z,95602.53
2022-10-23T17:40:02.640Z,95589.16
2022-10-23T17:45:04.801Z,95592.03
2022-10-23T17:50:09.514Z,95596.84
2022-10-23T17:55:11.144Z,95603.56
2022-10-23T18:00:13.070Z,95604.44
2022-10-23T18:05:14.656Z,95609.19
2022-10-23T18:10:16.297Z,95604.56
2022-10-23T18:15:18.020Z,95606.97
2022-10-23T18:20:19.723Z,95600.34
2022-10-23T18:25:21.439Z,95616.19
2022-10-23T18:30:23.275Z,95636.72
2022-10-23T18:35:25.400Z,95636.72
2022-10-23T18:40:28.085Z,95632.06
2022-10-23T18:45:31.795Z,95630.09
2022-10-23T18:50:37.502Z,95621.91
2022-10-23T18:55:46.199Z,95592.34
2022-10-23T19:00:47.896Z,95558.16
2022-10-23T19:05:51.614Z,95563.66
2022-10-23T19:10:53.509Z,95561.31
2022-10-23T19:15:56.218Z,95553.50
2022-10-23T19:20:59.533Z,95540.56
2022-10-23T19:26:04.795Z,95539.78
2022-10-23T19:31:08.213Z,95532.72
2022-10-23T19:36:14.106Z,95527.63
2022-10-23T19:41:18.615Z,95530.03
2022-10-23T19:46:20.283Z,95548.56
2022-10-23T19:51:22.070Z,95560.91
2022-10-23T19:56:24.443Z,95580.31
2022-10-23T20:01:27.085Z,95582.00
2022-10-23T20:06:34.864Z,95590.75
2022-10-23T20:11:38.467Z,95598.66
2022-10-23T20:16:40.074Z,95607.69
2022-10-23T20:21:44.349Z,95625.00
2022-10-23T20:26:49.029Z,95608.91
2022-10-23T20:31:53.006Z,95618.63
2022-10-23T20:36:54.671Z,95634.41
2022-10-23T20:41:58.439Z,95640.44
2022-10-23T20:47:00.509Z,95651.81
2022-10-23T20:52:03.414Z,95645.44
2022-10-23T20:57:05.085Z,95646.91
2022-10-23T21:02:07.453Z,95647.66
2022-10-23T21:07:10.803Z,95636.66
2022-10-23T21:12:13.054Z,95655.16
2022-10-23T21:17:17.296Z,95654.81
2022-10-23T21:22:19.145Z,95661.97
2022-10-23T21:27:21.756Z,95671.97
2022-10-23T21:32:23.599Z,95662.66
2022-10-23T21:37:25.553Z,95675.66
2022-10-23T21:42:27.269Z,95680.81
2022-10-23T21:47:29.456Z,95691.81
2022-10-23T21:52:31.376Z,95681.94
2022-10-23T21:57:34.201Z,95716.56
2022-10-23T22:02:36.399Z,95730.84
2022-10-23T22:07:38.126Z,95725.75
2022-10-23T22:12:40.213Z,95729.72
2022-10-23T22:17:42.023Z,95713.97
2022-10-23T22:22:43.870Z,95719.81
2022-10-23T22:27:45.675Z,95724.97
2022-10-23T22:32:47.753Z,95724.22
2022-10-23T22:37:50.379Z,95736.00
2022-10-23T22:42:52.005Z,95741.06
2022-10-23T22:47:53.806Z,95743.75
2022-10-23T22:52:55.999Z,95731.88
2022-10-23T22:57:57.638Z,95761.78
2022-10-23T23:02:59.826Z,95755.47
2022-10-23T23:08:01.614Z,95769.19
2022-10-23T23:13:03.547Z,95782.88
2022-10-23T23:18:05.237Z,95785.72
2022-10-23T23:23:08.066Z,95801.81
2022-10-23T23:28:12.386Z,95803.72
2022-10-23T23:33:16.489Z,95792.22
2022-10-23T23:38:19.488Z,95791.00
2022-10-23T23:43:21.311Z,95800.03
2022-10-23T23:48:23.400Z,95797.72
2022-10-23T23:53:25.189Z,95801.94
2022-10-23T23:58:27.002Z,95824.41
